Disclaimer

Please do not use the information listed here in-flight or in-navigation, as they are not provided to us by the airports but are provided by volunteers, so they might be outdated.

Search


Regions


Airport information page

Radio informations:
GND CLNC DEL - 121.7 MHz
Automatic Terminal Information Service (ATIS) - 116.7 MHz

Airport informations:
Latitude: 35° 18' 25.00" S
Longitude: 149° 11' 42.00" E
Elevation: 1886 feet - 575 meters
Operating hours: N/A
Operating agency: Civil government, landing fees and diplomatic clearance may be required
Timezone: UTC+10(+11DT)
Fuel: Jet A1, without icing nhibitor.

100/130 MIL Spec, low lead, aviation gasoline (BLUE)

Runway information:
12/30 - 5509 x 148 feet< - >1679 x 45 meters
17/35 - 8802 x 148 feet< - >2683 x 45 meters

Recent METARs:
YSCB 170000Z 09013KT 9999 SCT040 BKN060 19/08 Q1021 FM0200 11015G25KT 9999 -SHRA SCT030 SCT050
YSCB 170000Z 09013KT 9999 SCT040 BKN060 19/08 Q1021 FM0200 11015G25KT 9999 -SHRA SCT030 SCT050
YSCB 170100Z 11011KT 070V130 9999 SCT040 20/08 Q1020 FM0200 11015G25KT 9999 -SHRA SCT030 SCT050

Airport on the map: